createdAt,value
2022-11-01T00:02:19.267Z,14.52
2022-11-01T00:04:46.920Z,14.65
2022-11-01T00:07:14.411Z,14.50
2022-11-01T00:09:41.932Z,16.38
2022-11-01T00:12:09.458Z,14.85
2022-11-01T00:14:37.086Z,17.17
2022-11-01T00:17:05.253Z,14.30
2022-11-01T00:19:32.679Z,17.23
2022-11-01T00:22:00.236Z,19.13
2022-11-01T00:24:27.822Z,15.63
2022-11-01T00:26:56.646Z,15.55
2022-11-01T00:29:24.884Z,14.90
2022-11-01T00:34:40.448Z,16.67
2022-11-01T00:37:12.268Z,15.90
2022-11-01T00:39:40.399Z,14.93
2022-11-01T00:42:07.839Z,14.50
2022-11-01T00:44:35.390Z,14.52
2022-11-01T00:47:04.204Z,15.07
2022-11-01T00:49:31.750Z,15.15
2022-11-01T00:51:59.266Z,15.15
2022-11-01T00:54:27.085Z,14.30
2022-11-01T00:56:54.951Z,16.15
2022-11-01T00:59:22.481Z,16.55
2022-11-01T01:01:50.141Z,14.98
2022-11-01T01:04:18.074Z,16.35
2022-11-01T01:06:45.853Z,19.33
2022-11-01T01:09:13.519Z,17.67
2022-11-01T01:11:41.686Z,14.90
2022-11-01T01:14:09.672Z,16.17
2022-11-01T01:16:37.679Z,16.90
2022-11-01T01:19:05.835Z,18.30
2022-11-01T01:21:36.677Z,17.73
2022-11-01T01:24:04.236Z,16.33
2022-11-01T01:26:31.767Z,17.45
2022-11-01T01:29:00.717Z,16.27
2022-11-01T01:31:28.636Z,16.80
2022-11-01T01:33:58.156Z,15.77
2022-11-01T01:36:25.673Z,15.10
2022-11-01T01:38:53.861Z,16.23
2022-11-01T01:41:40.697Z,15.45
2022-11-01T01:44:51.856Z,16.65
2022-11-01T01:47:40.857Z,16.70
2022-11-01T01:50:20.870Z,16.33
2022-11-01T01:52:58.867Z,14.05
2022-11-01T01:55:46.565Z,16.50
2022-11-01T01:58:18.474Z,15.98
2022-11-01T02:00:46.288Z,16.45
2022-11-01T02:03:15.009Z,19.90
2022-11-01T02:05:55.279Z,15.80
2022-11-01T02:08:29.818Z,16.52
2022-11-01T02:11:08.614Z,19.92
2022-11-01T02:13:36.577Z,15.80
2022-11-01T02:16:06.728Z,15.70
2022-11-01T02:19:04.315Z,16.05
2022-11-01T02:21:53.929Z,17.42
2022-11-01T02:24:54.919Z,18.02
2022-11-01T02:28:04.952Z,18.25
2022-11-01T02:30:57.474Z,19.55
2022-11-01T02:33:47.757Z,14.23
2022-11-01T02:36:55.318Z,15.13
2022-11-01T02:39:32.911Z,12.88
2022-11-01T02:42:21.699Z,15.25
2022-11-01T02:45:09.335Z,17.38
2022-11-01T02:47:39.855Z,17.35
2022-11-01T02:50:12.517Z,16.42
2022-11-01T02:52:42.890Z,15.00
2022-11-01T02:55:30.971Z,17.45
2022-11-01T02:58:21.303Z,17.08
2022-11-01T03:00:49.485Z,14.63
2022-11-01T03:03:31.282Z,17.85
2022-11-01T03:06:01.793Z,15.80
2022-11-01T03:08:52.540Z,17.98
2022-11-01T03:11:26.935Z,15.27
2022-11-01T03:14:18.599Z,17.90
2022-11-01T03:17:56.938Z,17.05
2022-11-01T03:20:49.550Z,18.15
2022-11-01T03:23:26.699Z,16.23
2022-11-01T03:25:58.625Z,16.23
2022-11-01T03:28:41.362Z,17.98
2022-11-01T03:31:17.078Z,15.40
2022-11-01T03:33:54.064Z,14.00
2022-11-01T03:36:28.254Z,16.10
2022-11-01T03:41:34.074Z,16.52
2022-11-01T03:44:03.046Z,16.53
2022-11-01T03:46:30.786Z,15.38
2022-11-01T03:49:00.098Z,18.73
2022-11-01T03:51:28.680Z,19.35
2022-11-01T03:53:57.597Z,15.32
2022-11-01T03:56:25.189Z,17.63
2022-11-01T03:58:52.761Z,18.92
2022-11-01T04:01:21.037Z,16.35
2022-11-01T04:06:39.001Z,19.55
2022-11-01T04:09:06.884Z,15.40
2022-11-01T04:11:35.472Z,15.63
2022-11-01T04:14:21.812Z,15.15
2022-11-01T04:17:09.638Z,15.85
2022-11-01T04:19:56.215Z,13.95
2022-11-01T04:22:26.914Z,14.18
2022-11-01T04:24:54.402Z,13.20
2022-11-01T04:30:24.897Z,15.40
2022-11-01T04:32:53.359Z,13.70
2022-11-01T04:40:51.416Z,13.23
2022-11-01T04:46:04.343Z,15.40
2022-11-01T04:48:32.544Z,14.15
2022-11-01T04:51:02.671Z,14.32
2022-11-01T04:53:30.589Z,16.92
2022-11-01T04:55:58.648Z,16.33
2022-11-01T04:58:28.683Z,15.77
2022-11-01T05:00:56.866Z,15.10
2022-11-01T05:03:24.596Z,16.70
2022-11-01T05:05:52.226Z,15.70
2022-11-01T05:08:19.740Z,15.80
2022-11-01T05:10:47.552Z,15.77
2022-11-01T05:13:14.951Z,17.23
2022-11-01T05:15:59.254Z,19.35
2022-11-01T05:18:33.304Z,17.90
2022-11-01T05:21:00.953Z,20.65
2022-11-01T05:23:28.424Z,18.63
2022-11-01T05:25:56.939Z,16.20
2022-11-01T05:28:24.758Z,17.90
2022-11-01T05:30:52.207Z,16.33
2022-11-01T05:33:19.709Z,15.02
2022-11-01T05:35:47.228Z,14.43
2022-11-01T05:38:14.675Z,14.20
2022-11-01T05:40:42.207Z,18.00
2022-11-01T05:43:09.714Z,18.30
2022-11-01T05:45:37.513Z,18.67
2022-11-01T05:48:05.757Z,15.00
2022-11-01T05:50:35.943Z,13.80
2022-11-01T05:53:10.547Z,17.08
2022-11-01T05:55:39.522Z,14.90
2022-11-01T05:58:07.141Z,15.80
2022-11-01T06:00:35.799Z,17.75
2022-11-01T06:03:03.762Z,17.92
2022-11-01T06:05:32.353Z,18.85
2022-11-01T06:08:02.721Z,20.42
2022-11-01T06:10:30.848Z,16.65
2022-11-01T06:12:59.806Z,17.05
2022-11-01T06:15:27.598Z,14.95
2022-11-01T06:17:59.509Z,16.30
2022-11-01T06:21:30.078Z,15.27
2022-11-01T06:23:57.970Z,18.05
2022-11-01T06:26:25.980Z,18.98
2022-11-01T06:28:53.417Z,18.55
2022-11-01T06:31:22.360Z,17.42
2022-11-01T06:33:50.695Z,19.27
2022-11-01T06:36:18.366Z,15.80
2022-11-01T06:38:46.301Z,18.30
2022-11-01T06:41:16.162Z,16.23
2022-11-01T06:43:43.634Z,14.98
2022-11-01T06:46:11.738Z,18.55
2022-11-01T06:48:39.681Z,16.38
2022-11-01T06:51:07.442Z,17.27
2022-11-01T06:53:34.988Z,16.02
2022-11-01T06:56:03.158Z,16.60
2022-11-01T06:58:30.709Z,16.75
2022-11-01T07:00:58.489Z,16.92
2022-11-01T07:03:26.037Z,16.45
2022-11-01T07:05:53.774Z,15.00
2022-11-01T07:08:21.500Z,16.58
2022-11-01T07:10:52.020Z,15.25
2022-11-01T07:13:22.747Z,15.32
2022-11-01T07:15:50.152Z,18.23
2022-11-01T07:18:17.806Z,15.30
2022-11-01T07:23:17.050Z,18.30
2022-11-01T07:25:45.267Z,17.08
2022-11-01T07:28:13.269Z,16.80
2022-11-01T07:30:41.714Z,15.10
2022-11-01T07:33:09.342Z,15.73
2022-11-01T07:35:37.039Z,16.88
2022-11-01T07:38:07.998Z,15.60
2022-11-01T07:40:44.763Z,13.95
2022-11-01T07:43:12.176Z,17.30
2022-11-01T07:45:39.696Z,15.57
2022-11-01T07:48:12.075Z,15.00
2022-11-01T07:50:41.866Z,14.43
2022-11-01T07:53:14.916Z,18.13
2022-11-01T07:55:42.888Z,15.68
2022-11-01T07:58:11.970Z,15.05
2022-11-01T08:00:43.665Z,12.55
2022-11-01T08:03:16.776Z,14.15
2022-11-01T08:14:45.755Z,15.73
2022-11-01T08:21:30.301Z,14.00
2022-11-01T08:26:30.624Z,26.35
2022-11-01T08:31:56.790Z,13.82
2022-11-01T08:34:24.512Z,24.27
2022-11-01T08:39:42.516Z,14.73
2022-11-01T09:28:37.529Z,13.88
2022-11-01T09:31:21.442Z,15.68
2022-11-01T09:39:49.295Z,17.30
2022-11-01T09:42:37.264Z,17.33
2022-11-01T09:51:27.143Z,13.88
2022-11-01T09:54:19.984Z,11.45
2022-11-01T10:40:09.288Z,12.95
2022-11-01T10:42:37.861Z,12.68
2022-11-01T10:45:10.832Z,11.50
2022-11-01T10:47:39.189Z,11.57
2022-11-01T10:50:19.074Z,11.95
2022-11-01T10:52:52.569Z,12.73
2022-11-01T10:55:33.091Z,11.95
2022-11-01T10:58:07.488Z,13.15
2022-11-01T11:00:41.776Z,11.10
2022-11-01T11:03:24.268Z,12.02
2022-11-01T11:05:53.375Z,14.20
2022-11-01T11:08:24.807Z,11.82
2022-11-01T11:10:53.923Z,11.50
2022-11-01T11:13:24.362Z,12.98
2022-11-01T11:16:05.144Z,11.43
2022-11-01T11:18:38.677Z,12.15
2022-11-01T11:21:13.517Z,12.98
2022-11-01T11:23:46.611Z,12.93
2022-11-01T11:26:18.261Z,16.15
2022-11-01T11:28:53.487Z,15.30
2022-11-01T11:31:36.476Z,16.70
2022-11-01T11:34:23.447Z,15.90
2022-11-01T11:36:53.816Z,42.08
2022-11-01T11:39:29.661Z,21.23
2022-11-01T11:42:19.285Z,23.77
2022-11-01T11:44:55.859Z,23.02
2022-11-01T11:47:29.210Z,18.45
2022-11-01T11:50:00.218Z,21.25
2022-11-01T11:52:38.106Z,15.70
2022-11-01T11:55:27.872Z,16.15
2022-11-01T11:57:57.184Z,15.68
2022-11-01T12:00:29.827Z,20.67
2022-11-01T12:02:57.533Z,15.43
2022-11-01T12:05:26.872Z,14.73
2022-11-01T12:07:57.050Z,20.95
2022-11-01T12:10:36.940Z,15.93
2022-11-01T12:13:26.887Z,14.75
2022-11-01T12:16:20.458Z,15.23
2022-11-01T12:19:00.334Z,15.43
2022-11-01T12:21:45.057Z,15.40
2022-11-01T12:24:25.156Z,16.50
2022-11-01T12:27:04.199Z,13.70
2022-11-01T12:29:41.374Z,12.50
2022-11-01T12:32:20.177Z,13.88
2022-11-01T12:34:51.133Z,13.40
2022-11-01T12:37:50.497Z,16.42
2022-11-01T12:40:41.236Z,25.25
2022-11-01T12:43:52.722Z,16.55
2022-11-01T12:46:40.023Z,15.68
2022-11-01T12:49:23.592Z,15.27
2022-11-01T12:51:56.917Z,12.15
2022-11-01T12:54:41.308Z,16.73
2022-11-01T12:57:18.482Z,15.27
2022-11-01T12:59:48.160Z,14.82
2022-11-01T13:02:46.515Z,14.85
2022-11-01T13:05:23.621Z,11.93
2022-11-01T13:08:21.575Z,15.18
2022-11-01T13:10:49.936Z,14.82
2022-11-01T13:13:22.821Z,14.57
2022-11-01T13:16:09.117Z,12.63
2022-11-01T13:19:14.317Z,14.98
2022-11-01T13:25:14.899Z,14.77
2022-11-01T13:28:07.929Z,13.20
2022-11-01T13:30:43.695Z,13.77
2022-11-01T13:33:44.281Z,14.20
2022-11-01T13:36:48.426Z,14.43
2022-11-01T13:39:42.368Z,11.98
2022-11-01T13:51:47.863Z,12.43
2022-11-01T13:57:09.513Z,13.15
2022-11-01T13:59:42.900Z,12.70
2022-11-01T14:02:29.335Z,12.40
2022-11-01T14:05:05.059Z,14.70
2022-11-01T14:07:51.472Z,12.80
2022-11-01T14:10:25.602Z,16.40
2022-11-01T14:16:15.748Z,12.82
2022-11-01T14:19:05.080Z,13.75
2022-11-01T14:21:45.144Z,12.30
2022-11-01T14:24:34.888Z,15.02
2022-11-01T14:27:34.093Z,12.85
2022-11-01T14:30:07.669Z,13.55
2022-11-01T14:32:36.342Z,13.38
2022-11-01T14:35:21.876Z,12.15
2022-11-01T14:37:54.336Z,14.90
2022-11-01T14:40:39.099Z,13.98
2022-11-01T14:43:36.404Z,14.07
2022-11-01T14:46:11.953Z,14.80
2022-11-01T14:49:25.031Z,13.02
2022-11-01T14:52:12.314Z,14.85
2022-11-01T14:55:21.049Z,18.10
2022-11-01T14:57:49.971Z,14.45
2022-11-01T15:00:31.361Z,13.85
2022-11-01T15:03:09.797Z,16.75
2022-11-01T15:28:18.533Z,14.63
2022-11-01T16:16:16.554Z,21.50
2022-11-01T16:18:46.692Z,18.27
2022-11-01T16:30:32.016Z,14.27
2022-11-01T17:55:07.400Z,21.45
2022-11-01T18:21:43.938Z,23.23
2022-11-01T18:27:41.487Z,23.27
2022-11-01T18:30:15.394Z,25.93
2022-11-01T18:32:58.904Z,29.08
2022-11-01T18:35:34.100Z,27.48
2022-11-01T18:44:36.911Z,24.05
2022-11-01T18:47:23.783Z,25.58
2022-11-01T18:49:59.062Z,25.90
2022-11-01T18:52:29.448Z,24.65
2022-11-01T18:57:44.481Z,25.90
2022-11-01T19:00:27.184Z,27.88
2022-11-01T19:03:00.723Z,24.08
2022-11-01T19:05:32.982Z,29.20
2022-11-01T19:08:11.027Z,26.55
2022-11-01T19:10:43.249Z,34.53
2022-11-01T19:16:42.860Z,34.80
2022-11-01T19:19:20.671Z,36.92
2022-11-01T19:22:04.928Z,37.15
2022-11-01T19:24:40.955Z,38.13
2022-11-01T19:27:26.124Z,37.88
2022-11-01T19:29:57.917Z,28.65
2022-11-01T19:32:27.135Z,29.38
2022-11-01T19:35:00.243Z,25.85
2022-11-01T19:40:49.462Z,24.05
2022-11-01T19:43:39.146Z,22.95
2022-11-01T19:46:17.147Z,25.30
2022-11-01T19:48:45.938Z,23.38
2022-11-01T19:51:26.859Z,24.30
2022-11-01T19:53:56.860Z,25.58
2022-11-01T19:56:30.129Z,24.45
2022-11-01T19:59:01.073Z,24.50
2022-11-01T20:01:44.853Z,25.67
2022-11-01T20:04:31.463Z,21.75
2022-11-01T20:07:16.276Z,24.58
2022-11-01T20:12:44.757Z,28.08
2022-11-01T20:17:57.750Z,26.92
2022-11-01T20:20:30.584Z,26.92
2022-11-01T20:23:24.503Z,26.02
2022-11-01T20:25:49.971Z,30.40
2022-11-01T20:28:34.454Z,27.33
2022-11-01T20:31:04.190Z,26.80
2022-11-01T20:42:04.636Z,24.58
2022-11-01T20:44:43.522Z,27.63
2022-11-01T20:49:59.292Z,27.63
2022-11-01T20:52:40.429Z,23.00
2022-11-01T20:55:24.232Z,24.75
2022-11-01T21:01:30.255Z,21.42
2022-11-01T21:09:47.534Z,24.45
2022-11-01T21:12:50.305Z,22.65
2022-11-01T21:15:40.164Z,23.25
2022-11-01T21:18:34.092Z,23.27
2022-11-01T21:21:18.612Z,23.15
2022-11-01T21:26:26.783Z,22.30
2022-11-01T21:33:02.175Z,24.40
2022-11-01T21:50:03.788Z,22.98
2022-11-01T21:52:34.738Z,21.50
2022-11-01T21:55:02.767Z,23.95
2022-11-01T21:57:30.300Z,23.83
2022-11-01T21:59:57.884Z,26.85
2022-11-01T22:02:28.773Z,23.17
2022-11-01T22:04:56.707Z,21.13
2022-11-01T22:07:24.248Z,25.50
2022-11-01T22:09:51.826Z,24.20
2022-11-01T22:12:21.920Z,26.33
2022-11-01T22:14:49.919Z,26.95
2022-11-01T22:17:18.025Z,27.38
2022-11-01T22:19:45.770Z,30.27
2022-11-01T22:22:13.292Z,28.13
2022-11-01T22:24:41.588Z,30.48
2022-11-01T22:27:09.055Z,28.08
2022-11-01T22:29:36.745Z,30.05
2022-11-01T22:32:04.729Z,33.10
2022-11-01T22:34:32.357Z,29.13
2022-11-01T22:52:32.717Z,27.27
2022-11-01T22:55:25.067Z,27.88
2022-11-01T22:58:03.980Z,28.73
2022-11-01T23:00:44.018Z,30.35
2022-11-01T23:03:33.637Z,25.70
2022-11-01T23:09:26.225Z,25.15
2022-11-01T23:14:51.700Z,29.15
2022-11-01T23:17:34.956Z,30.02
2022-11-01T23:20:32.185Z,29.35
2022-11-01T23:23:11.445Z,27.65
2022-11-01T23:25:45.874Z,28.85
2022-11-01T23:28:24.409Z,29.90
2022-11-01T23:30:57.996Z,28.05
2022-11-01T23:33:37.307Z,28.83
2022-11-01T23:36:12.403Z,28.85
2022-11-01T23:38:54.184Z,29.73
2022-11-01T23:41:48.009Z,26.30
2022-11-01T23:44:37.211Z,29.13
2022-11-01T23:47:38.672Z,28.45
2022-11-01T23:50:34.807Z,26.58
2022-11-01T23:53:20.655Z,26.20
2022-11-01T23:55:53.162Z,25.15
2022-11-01T23:58:30.747Z,28.77
